Antlers Park, Minnesota
Current Conditions -  °F | °C
As of 8:08 PM on Saturday 25 Oct 2014 (Local Time) from KLVN Reporting Station
Clear Clear  
Wind Chill: 46°   Ceiling: Unl
Heat Index: 48°   Visibility: 10mi
Dew Point: 27°   Wind: 6mph
Humidity: 43%   Direction: 290°WNW
Pressure: 30.05"   Gusts: NA
Location:  44.6349°N, 93.283°W
Report Text: KLVN 260108Z AUTO 29005KT 10SM CLR 09/M03 A3005 RMK AO2
Loading
Personal Weather Stations






























Interactive Weather Map
Tropical Storm Tracking
New forecast layout! Learn more

10-Day Weather Forecast

Advertisements
Track Severe Weather on mobile